sensor_id;sensor_type;location;lat;lon;timestamp;pressure;altitude;pressure_sealevel;temperature;humidity
25650;BME280;13505;45.196;5.696;2023-08-12T04:31:06;99523.09;;;22.47;63.64
25650;BME280;13505;45.196;5.696;2023-08-12T04:35:58;99522.16;;;22.78;62.73
25650;BME280;13505;45.196;5.696;2023-08-12T04:40:48;99524.28;;;22.74;62.92
25650;BME280;13505;45.196;5.696;2023-08-12T04:45:44;99525.41;;;22.52;63.49
25650;BME280;13505;45.196;5.696;2023-08-12T04:50:34;99517.34;;;22.52;63.17
25650;BME280;13505;45.196;5.696;2023-08-12T04:55:25;99516.47;;;22.61;62.77
25650;BME280;13505;45.196;5.696;2023-08-12T05:00:16;99527.22;;;22.61;62.31
25650;BME280;13505;45.196;5.696;2023-08-12T05:05:07;99524.75;;;22.38;63.73
25650;BME280;13505;45.196;5.696;2023-08-12T05:09:58;99528.81;;;22.74;62.58
25650;BME280;13505;45.196;5.696;2023-08-12T05:14:48;99519.19;;;23.10;60.93
25650;BME280;13505;45.196;5.696;2023-08-12T05:19:38;99515.94;;;22.87;61.79
25650;BME280;13505;45.196;5.696;2023-08-12T05:24:29;99511.97;;;22.71;63.04
25650;BME280;13505;45.196;5.696;2023-08-12T05:29:19;99519.75;;;22.84;62.64
25650;BME280;13505;45.196;5.696;2023-08-12T05:34:09;99524.00;;;22.87;62.44
25650;BME280;13505;45.196;5.696;2023-08-12T05:39:00;99525.84;;;23.16;61.12
25650;BME280;13505;45.196;5.696;2023-08-12T05:43:50;99537.84;;;23.12;61.15
25650;BME280;13505;45.196;5.696;2023-08-12T05:48:40;99536.31;;;23.19;60.52
25650;BME280;13505;45.196;5.696;2023-08-12T05:53:31;99534.88;;;23.35;60.50
25650;BME280;13505;45.196;5.696;2023-08-12T05:58:23;99538.97;;;23.49;59.63
25650;BME280;13505;45.196;5.696;2023-08-12T06:03:13;99543.03;;;24.01;57.80
25650;BME280;13505;45.196;5.696;2023-08-12T06:08:03;99542.00;;;24.39;56.46
25650;BME280;13505;45.196;5.696;2023-08-12T06:12:54;99538.66;;;25.10;54.52
25650;BME280;13505;45.196;5.696;2023-08-12T06:17:44;99544.59;;;24.95;54.65
25650;BME280;13505;45.196;5.696;2023-08-12T06:22:35;99546.38;;;24.87;54.88
25650;BME280;13505;45.196;5.696;2023-08-12T06:27:26;99546.13;;;24.62;55.49
25650;BME280;13505;45.196;5.696;2023-08-12T06:32:16;99553.13;;;24.55;56.96
25650;BME280;13505;45.196;5.696;2023-08-12T06:37:06;99552.81;;;24.58;57.96
25650;BME280;13505;45.196;5.696;2023-08-12T06:41:57;99557.28;;;24.67;57.73
25650;BME280;13505;45.196;5.696;2023-08-12T06:46:49;99552.44;;;24.52;58.89
25650;BME280;13505;45.196;5.696;2023-08-12T06:51:39;99559.19;;;24.38;59.33
25650;BME280;13505;45.196;5.696;2023-08-12T06:56:29;99556.03;;;24.15;59.59
25650;BME280;13505;45.196;5.696;2023-08-12T07:01:20;99558.81;;;23.95;59.98
25650;BME280;13505;45.196;5.696;2023-08-12T07:06:10;99554.91;;;24.64;57.98
25650;BME280;13505;45.196;5.696;2023-08-12T07:11:00;99552.56;;;25.42;56.08
25650;BME280;13505;45.196;5.696;2023-08-12T07:15:51;99548.03;;;26.38;51.82
25650;BME280;13505;45.196;5.696;2023-08-12T07:20:41;99546.13;;;26.98;49.68
25650;BME280;13505;45.196;5.696;2023-08-12T07:25:31;99547.13;;;27.64;47.32
25650;BME280;13505;45.196;5.696;2023-08-12T07:30:22;99554.47;;;27.95;46.34
25650;BME280;13505;45.196;5.696;2023-08-12T07:35:12;99551.34;;;27.58;46.62
25650;BME280;13505;45.196;5.696;2023-08-12T07:40:03;99553.94;;;27.18;48.49
25650;BME280;13505;45.196;5.696;2023-08-12T07:44:53;99545.84;;;28.39;46.83
25650;BME280;13505;45.196;5.696;2023-08-12T07:49:43;99543.13;;;27.91;45.95
25650;BME280;13505;45.196;5.696;2023-08-12T07:54:35;99537.06;;;27.89;46.85
25650;BME280;13505;45.196;5.696;2023-08-12T07:59:25;99543.50;;;27.88;46.90
25650;BME280;13505;45.196;5.696;2023-08-12T08:04:16;99543.63;;;27.95;46.69
25650;BME280;13505;45.196;5.696;2023-08-12T08:09:06;99549.28;;;27.77;47.24
25650;BME280;13505;45.196;5.696;2023-08-12T08:13:57;99555.25;;;27.55;48.42
25650;BME280;13505;45.196;5.696;2023-08-12T08:18:48;99565.34;;;28.66;45.63
25650;BME280;13505;45.196;5.696;2023-08-12T08:23:40;99561.00;;;29.27;43.35
25650;BME280;13505;45.196;5.696;2023-08-12T08:28:31;99555.91;;;29.32;44.28
25650;BME280;13505;45.196;5.696;2023-08-12T08:33:21;99548.19;;;30.19;42.55
25650;BME280;13505;45.196;5.696;2023-08-12T08:38:11;99550.06;;;30.56;41.12
25650;BME280;13505;45.196;5.696;2023-08-12T08:43:03;99547.66;;;30.83;41.25
25650;BME280;13505;45.196;5.696;2023-08-12T08:47:54;99546.94;;;31.17;40.53
25650;BME280;13505;45.196;5.696;2023-08-12T08:52:45;99536.34;;;31.58;39.75
25650;BME280;13505;45.196;5.696;2023-08-12T08:57:37;99528.13;;;31.51;38.94
25650;BME280;13505;45.196;5.696;2023-08-12T09:02:28;99536.66;;;31.77;38.54
25650;BME280;13505;45.196;5.696;2023-08-12T09:07:20;99539.00;;;32.22;36.96
25650;BME280;13505;45.196;5.696;2023-08-12T09:12:13;99533.25;;;32.45;36.59
25650;BME280;13505;45.196;5.696;2023-08-12T09:17:04;99535.56;;;31.99;36.98
25650;BME280;13505;45.196;5.696;2023-08-12T09:21:54;99526.38;;;31.72;37.61
25650;BME280;13505;45.196;5.696;2023-08-12T09:26:51;99521.28;;;31.12;38.54
25650;BME280;13505;45.196;5.696;2023-08-12T09:31:42;99512.81;;;31.85;38.29
25650;BME280;13505;45.196;5.696;2023-08-12T09:36:33;99512.44;;;32.44;37.34
25650;BME280;13505;45.196;5.696;2023-08-12T09:41:27;99502.44;;;32.85;35.74
25650;BME280;13505;45.196;5.696;2023-08-12T09:46:21;99509.63;;;32.24;35.84
25650;BME280;13505;45.196;5.696;2023-08-12T09:51:12;99494.66;;;33.49;34.57
25650;BME280;13505;45.196;5.696;2023-08-12T09:56:11;99500.31;;;34.20;33.32
25650;BME280;13505;45.196;5.696;2023-08-12T10:01:03;99493.72;;;34.74;31.67
25650;BME280;13505;45.196;5.696;2023-08-12T10:05:55;99484.66;;;34.73;31.49
25650;BME280;13505;45.196;5.696;2023-08-12T10:10:45;99471.41;;;34.70;33.44
25650;BME280;13505;45.196;5.696;2023-08-12T10:15:36;99469.66;;;35.08;32.55
25650;BME280;13505;45.196;5.696;2023-08-12T10:20:29;99454.22;;;35.51;31.70
25650;BME280;13505;45.196;5.696;2023-08-12T10:25:20;99458.25;;;35.86;31.59
25650;BME280;13505;45.196;5.696;2023-08-12T10:30:13;99442.19;;;36.08;31.28
25650;BME280;13505;45.196;5.696;2023-08-12T10:35:04;99425.13;;;36.06;31.13
25650;BME280;13505;45.196;5.696;2023-08-12T10:39:55;99432.41;;;36.12;30.98
25650;BME280;13505;45.196;5.696;2023-08-12T10:44:49;99419.97;;;36.52;30.46
25650;BME280;13505;45.196;5.696;2023-08-12T10:49:48;99413.22;;;36.67;30.55
25650;BME280;13505;45.196;5.696;2023-08-12T10:54:38;99406.28;;;36.88;29.17
25650;BME280;13505;45.196;5.696;2023-08-12T10:59:52;99406.28;;;37.12;29.68
25650;BME280;13505;45.196;5.696;2023-08-12T11:04:43;99396.25;;;37.29;28.86
25650;BME280;13505;45.196;5.696;2023-08-12T11:09:34;99401.25;;;37.33;28.31
25650;BME280;13505;45.196;5.696;2023-08-12T11:14:25;99393.72;;;37.40;28.12
25650;BME280;13505;45.196;5.696;2023-08-12T11:19:16;99382.22;;;37.43;28.52
25650;BME280;13505;45.196;5.696;2023-08-12T11:24:07;99375.41;;;37.58;28.19
25650;BME280;13505;45.196;5.696;2023-08-12T11:28:57;99370.34;;;37.66;28.11
25650;BME280;13505;45.196;5.696;2023-08-12T11:33:48;99371.56;;;37.59;27.49
25650;BME280;13505;45.196;5.696;2023-08-12T11:38:38;99352.78;;;37.84;27.50
25650;BME280;13505;45.196;5.696;2023-08-12T11:43:29;99350.72;;;37.92;27.57
25650;BME280;13505;45.196;5.696;2023-08-12T11:48:22;99350.72;;;38.21;26.40
25650;BME280;13505;45.196;5.696;2023-08-12T11:53:14;99345.66;;;38.01;26.57
25650;BME280;13505;45.196;5.696;2023-08-12T11:58:04;99350.38;;;37.88;27.16
25650;BME280;13505;45.196;5.696;2023-08-12T12:02:55;99335.28;;;38.03;27.40
25650;BME280;13505;45.196;5.696;2023-08-12T12:07:48;99339.69;;;38.04;27.55
25650;BME280;13505;45.196;5.696;2023-08-12T12:12:39;99337.38;;;37.83;28.03
25650;BME280;13505;45.196;5.696;2023-08-12T12:17:29;99333.69;;;37.78;28.07
25650;BME280;13505;45.196;5.696;2023-08-12T12:22:20;99331.63;;;37.44;28.36
25650;BME280;13505;45.196;5.696;2023-08-12T12:27:11;99330.84;;;37.32;28.01
25650;BME280;13505;45.196;5.696;2023-08-12T12:32:01;99330.78;;;37.14;28.60
25650;BME280;13505;45.196;5.696;2023-08-12T12:36:51;99321.66;;;37.26;28.83
25650;BME280;13505;45.196;5.696;2023-08-12T12:41:41;99316.63;;;37.64;28.39
25650;BME280;13505;45.196;5.696;2023-08-12T12:46:32;99322.25;;;37.69;28.58
25650;BME280;13505;45.196;5.696;2023-08-12T12:51:22;99314.72;;;37.93;27.84
25650;BME280;13505;45.196;5.696;2023-08-12T12:56:13;99310.75;;;38.18;27.20
25650;BME280;13505;45.196;5.696;2023-08-12T13:01:04;99310.41;;;38.15;27.31
25650;BME280;13505;45.196;5.696;2023-08-12T13:05:54;99316.06;;;37.62;27.94
25650;BME280;13505;45.196;5.696;2023-08-12T13:10:45;99308.88;;;37.61;28.20
25650;BME280;13505;45.196;5.696;2023-08-12T13:15:36;99310.84;;;37.48;27.72
25650;BME280;13505;45.196;5.696;2023-08-12T13:20:27;99310.19;;;37.29;28.25
25650;BME280;13505;45.196;5.696;2023-08-12T13:25:17;99303.31;;;37.43;28.42
25650;BME280;13505;45.196;5.696;2023-08-12T13:30:08;99303.56;;;37.71;26.95
25650;BME280;13505;45.196;5.696;2023-08-12T13:34:58;99307.91;;;37.67;26.81
25650;BME280;13505;45.196;5.696;2023-08-12T13:39:49;99317.19;;;36.72;28.32
25650;BME280;13505;45.196;5.696;2023-08-12T13:44:39;99307.97;;;36.90;28.46
25650;BME280;13505;45.196;5.696;2023-08-12T13:49:29;99305.59;;;36.82;27.87
25650;BME280;13505;45.196;5.696;2023-08-12T13:54:20;99306.19;;;36.48;28.59
25650;BME280;13505;45.196;5.696;2023-08-12T13:59:10;99305.00;;;36.32;28.34
25650;BME280;13505;45.196;5.696;2023-08-12T14:04:00;99311.78;;;36.17;28.02
25650;BME280;13505;45.196;5.696;2023-08-12T14:08:51;99301.75;;;36.11;28.46
25650;BME280;13505;45.196;5.696;2023-08-12T14:13:41;99293.56;;;35.93;29.41
25650;BME280;13505;45.196;5.696;2023-08-12T14:18:31;99293.13;;;36.08;29.20
25650;BME280;13505;45.196;5.696;2023-08-12T14:23:22;99288.59;;;36.01;29.03
25650;BME280;13505;45.196;5.696;2023-08-12T14:28:13;99283.84;;;36.09;29.03
25650;BME280;13505;45.196;5.696;2023-08-12T14:33:03;99277.03;;;35.69;29.61
25650;BME280;13505;45.196;5.696;2023-08-12T14:37:54;99283.00;;;35.66;29.22
25650;BME280;13505;45.196;5.696;2023-08-12T14:42:44;99277.63;;;35.59;29.03
25650;BME280;13505;45.196;5.696;2023-08-12T14:47:34;99279.53;;;35.40;29.14
25650;BME280;13505;45.196;5.696;2023-08-12T14:52:24;99273.06;;;35.34;29.46
25650;BME280;13505;45.196;5.696;2023-08-12T14:57:15;99277.03;;;35.38;29.25
25650;BME280;13505;45.196;5.696;2023-08-12T15:02:05;99264.72;;;35.59;29.04
25650;BME280;13505;45.196;5.696;2023-08-12T15:06:56;99261.50;;;35.62;28.33
25650;BME280;13505;45.196;5.696;2023-08-12T15:11:46;99258.94;;;35.49;29.44
25650;BME280;13505;45.196;5.696;2023-08-12T15:16:37;99259.09;;;35.54;29.66
25650;BME280;13505;45.196;5.696;2023-08-12T15:21:27;99249.94;;;35.60;28.80
25650;BME280;13505;45.196;5.696;2023-08-12T15:26:18;99250.88;;;35.54;28.75
25650;BME280;13505;45.196;5.696;2023-08-12T15:31:11;99243.00;;;35.27;29.04
25650;BME280;13505;45.196;5.696;2023-08-12T15:36:02;99239.00;;;35.11;29.24
25650;BME280;13505;45.196;5.696;2023-08-12T15:40:52;99233.63;;;35.04;29.58
25650;BME280;13505;45.196;5.696;2023-08-12T15:45:44;99239.75;;;34.81;29.74
25650;BME280;13505;45.196;5.696;2023-08-12T15:50:34;99232.69;;;34.73;30.42
25650;BME280;13505;45.196;5.696;2023-08-12T15:55:24;99220.00;;;34.79;30.47
25650;BME280;13505;45.196;5.696;2023-08-12T16:00:15;99220.22;;;34.77;30.22
25650;BME280;13505;45.196;5.696;2023-08-12T16:05:06;99209.03;;;34.79;30.24
25650;BME280;13505;45.196;5.696;2023-08-12T16:09:56;99212.97;;;34.83;30.47
25650;BME280;13505;45.196;5.696;2023-08-12T16:14:46;99213.22;;;34.82;30.80
25650;BME280;13505;45.196;5.696;2023-08-12T16:19:37;99211.78;;;34.60;30.65
25650;BME280;13505;45.196;5.696;2023-08-12T16:24:27;99214.53;;;34.35;32.10
25650;BME280;13505;45.196;5.696;2023-08-12T16:29:18;99212.03;;;34.33;32.58
25650;BME280;13505;45.196;5.696;2023-08-12T16:34:08;99207.56;;;34.39;32.08
25650;BME280;13505;45.196;5.696;2023-08-12T16:38:58;99202.13;;;34.58;31.76
25650;BME280;13505;45.196;5.696;2023-08-12T16:43:49;99210.41;;;34.70;31.17
25650;BME280;13505;45.196;5.696;2023-08-12T16:48:39;99206.84;;;34.69;31.83
25650;BME280;13505;45.196;5.696;2023-08-12T16:53:29;99211.56;;;34.62;31.86
25650;BME280;13505;45.196;5.696;2023-08-12T16:58:20;99208.31;;;34.28;31.65
25650;BME280;13505;45.196;5.696;2023-08-12T17:03:11;99206.59;;;34.08;32.43
25650;BME280;13505;45.196;5.696;2023-08-12T17:08:01;99202.06;;;33.95;32.32
25650;BME280;13505;45.196;5.696;2023-08-12T17:12:52;99201.59;;;34.05;32.50
25650;BME280;13505;45.196;5.696;2023-08-12T17:17:44;99204.69;;;33.83;33.17
25650;BME280;13505;45.196;5.696;2023-08-12T17:22:34;99202.03;;;33.69;33.05
25650;BME280;13505;45.196;5.696;2023-08-12T17:27:25;99205.53;;;33.51;33.10
25650;BME280;13505;45.196;5.696;2023-08-12T17:32:15;99196.78;;;33.36;33.80
25650;BME280;13505;45.196;5.696;2023-08-12T17:37:06;99196.44;;;33.19;33.56
25650;BME280;13505;45.196;5.696;2023-08-12T17:41:56;99191.50;;;33.02;33.77
25650;BME280;13505;45.196;5.696;2023-08-12T17:46:46;99197.28;;;32.74;34.62
25650;BME280;13505;45.196;5.696;2023-08-12T17:51:37;99196.91;;;32.63;34.81
25650;BME280;13505;45.196;5.696;2023-08-12T17:56:27;99193.16;;;32.51;35.19
25650;BME280;13505;45.196;5.696;2023-08-12T18:01:17;99203.66;;;32.27;36.73
25650;BME280;13505;45.196;5.696;2023-08-12T18:06:08;99206.41;;;31.80;40.53
25650;BME280;13505;45.196;5.696;2023-08-12T18:10:59;99211.00;;;31.66;38.66
25650;BME280;13505;45.196;5.696;2023-08-12T18:15:50;99216.66;;;31.57;38.15
25650;BME280;13505;45.196;5.696;2023-08-12T18:20:40;99219.75;;;31.54;38.61
25650;BME280;13505;45.196;5.696;2023-08-12T18:25:31;99217.88;;;31.41;39.51
25650;BME280;13505;45.196;5.696;2023-08-12T18:30:21;99211.25;;;31.15;40.58
25650;BME280;13505;45.196;5.696;2023-08-12T18:35:12;99217.91;;;30.99;41.07
25650;BME280;13505;45.196;5.696;2023-08-12T18:40:03;99214.09;;;30.87;41.01
25650;BME280;13505;45.196;5.696;2023-08-12T18:44:53;99225.09;;;30.65;41.16
25650;BME280;13505;45.196;5.696;2023-08-12T18:49:44;99230.69;;;30.63;42.16
25650;BME280;13505;45.196;5.696;2023-08-12T18:54:34;99232.25;;;30.44;43.13
25650;BME280;13505;45.196;5.696;2023-08-12T18:59:25;99232.50;;;30.21;43.95
25650;BME280;13505;45.196;5.696;2023-08-12T19:04:15;99234.66;;;30.04;44.35
25650;BME280;13505;45.196;5.696;2023-08-12T19:09:05;99239.47;;;29.80;44.98
25650;BME280;13505;45.196;5.696;2023-08-12T19:13:56;99243.22;;;29.79;44.91
25650;BME280;13505;45.196;5.696;2023-08-12T19:18:46;99243.22;;;29.79;44.31
25650;BME280;13505;45.196;5.696;2023-08-12T19:23:39;99256.81;;;29.57;44.55
25650;BME280;13505;45.196;5.696;2023-08-12T19:28:30;99263.56;;;29.46;44.59
25650;BME280;13505;45.196;5.696;2023-08-12T19:33:20;99270.78;;;29.39;44.87
25650;BME280;13505;45.196;5.696;2023-08-12T19:38:11;99269.59;;;29.27;45.03
25650;BME280;13505;45.196;5.696;2023-08-12T19:43:02;99282.91;;;29.06;45.67
25650;BME280;13505;45.196;5.696;2023-08-12T19:47:53;99286.50;;;28.92;45.80
25650;BME280;13505;45.196;5.696;2023-08-12T19:52:43;99290.84;;;28.78;46.00
25650;BME280;13505;45.196;5.696;2023-08-12T19:57:33;99290.22;;;28.76;45.69
25650;BME280;13505;45.196;5.696;2023-08-12T20:02:24;99301.31;;;28.66;45.77
25650;BME280;13505;45.196;5.696;2023-08-12T20:07:14;99307.19;;;28.54;46.45
25650;BME280;13505;45.196;5.696;2023-08-12T20:12:05;99310.84;;;28.47;46.76
25650;BME280;13505;45.196;5.696;2023-08-12T20:16:55;99309.72;;;28.41;45.93
25650;BME280;13505;45.196;5.696;2023-08-12T20:21:45;99316.59;;;28.28;46.33
25650;BME280;13505;45.196;5.696;2023-08-12T20:26:36;99322.75;;;28.22;46.26
25650;BME280;13505;45.196;5.696;2023-08-12T20:31:26;99320.81;;;28.08;46.26
25650;BME280;13505;45.196;5.696;2023-08-12T20:36:17;99333.75;;;27.97;46.20
25650;BME280;13505;45.196;5.696;2023-08-12T20:41:07;99328.88;;;28.16;45.92
25650;BME280;13505;45.196;5.696;2023-08-12T20:45:58;99342.50;;;28.08;46.68
25650;BME280;13505;45.196;5.696;2023-08-12T20:50:48;99340.69;;;28.00;46.62
25650;BME280;13505;45.196;5.696;2023-08-12T20:55:38;99328.50;;;27.96;47.05
25650;BME280;13505;45.196;5.696;2023-08-12T21:00:29;99331.59;;;27.93;47.34
25650;BME280;13505;45.196;5.696;2023-08-12T21:05:19;99328.69;;;27.94;47.79
25650;BME280;13505;45.196;5.696;2023-08-12T21:10:10;99335.41;;;27.75;49.75
25650;BME280;13505;45.196;5.696;2023-08-12T21:15:01;99336.28;;;27.76;48.94
25650;BME280;13505;45.196;5.696;2023-08-12T21:19:51;99345.63;;;27.65;49.75
25650;BME280;13505;45.196;5.696;2023-08-12T21:24:42;99346.34;;;27.50;50.71
25650;BME280;13505;45.196;5.696;2023-08-12T21:29:32;99351.28;;;27.47;50.02
25650;BME280;13505;45.196;5.696;2023-08-12T21:34:22;99357.03;;;27.52;50.19
25650;BME280;13505;45.196;5.696;2023-08-12T21:39:13;99362.28;;;27.45;51.18
25650;BME280;13505;45.196;5.696;2023-08-12T21:44:04;99365.47;;;27.09;52.48
25650;BME280;13505;45.196;5.696;2023-08-12T21:48:54;99376.44;;;27.15;53.02
25650;BME280;13505;45.196;5.696;2023-08-12T21:53:44;99380.56;;;26.95;53.36
25650;BME280;13505;45.196;5.696;2023-08-12T21:58:36;99361.47;;;26.88;53.76
